Ryeland, Pennsylvania
Current Conditions -  °F | °C
As of 4:54 PM on Friday 19 Dec 2014 (Local Time) from KRDG Reporting Station
Clear Clear  
Wind Chill: 26°   Ceiling: Unl
Heat Index: 34°   Visibility: 10mi
Dew Point: 20°   Wind: 10mph
Humidity: 56%   Direction: 310°NW
Pressure: 30.12"   Gusts: NA
Location:  40.3905°N, 76.2083°W
Report Text: KRDG 192154Z 31009KT 10SM CLR 01/M07 A3012 RMK AO2 SLP207 T00111067
Loading
Personal Weather Stations






























Interactive Weather Map New forecast layout! Learn more

10-Day Weather Forecast

Advertisements
Track Severe Weather on mobile